Time;durP1;ratioP1;P1;durP2;ratioP2;P2;SDS_P1;SDS_P2;PMS_P1;PMS_P2;Temp;Humidity;BMP_temperature;BMP_pressure;BME280_temperature;BME280_humidity;BME280_pressure;Samples;Min_cycle;Max_cycle;Signal;HPM_P1;HPM_P2
2023/03/17 00:02:13;;;;;;;9.65;5.47;;;15.00;62.20;;;;;;10427906;28;20116;-56
2023/03/17 00:07:15;;;;;;;11.45;6.28;;;14.90;62.00;;;;;;10444357;28;20021;-57
2023/03/17 00:12:16;;;;;;;9.88;5.55;;;15.00;62.20;;;;;;10431330;28;20028;-56
2023/03/17 00:17:17;;;;;;;8.82;5.32;;;14.90;62.10;;;;;;10445675;28;20375;-56
2023/03/17 00:22:21;;;;;;;8.02;4.97;;;14.90;62.20;;;;;;10445927;28;20033;-56
2023/03/17 00:27:22;;;;;;;9.00;5.18;;;14.90;62.10;;;;;;10452171;28;20018;-56
2023/03/17 00:32:23;;;;;;;6.93;4.22;;;14.90;62.10;;;;;;10452125;28;20108;-56
2023/03/17 00:37:24;;;;;;;7.85;4.43;;;14.90;62.00;;;;;;10452703;28;20453;-56
2023/03/17 00:42:24;;;;;;;8.02;4.07;;;14.90;62.00;;;;;;10434924;28;20608;-56
2023/03/17 00:47:25;;;;;;;9.52;5.63;;;14.90;62.10;;;;;;10451711;28;20056;-56
2023/03/17 00:52:26;;;;;;;7.22;4.50;;;14.90;62.00;;;;;;10451905;28;20372;-56
2023/03/17 00:57:27;;;;;;;7.60;4.75;;;14.90;62.10;;;;;;10451278;28;20017;-56
2023/03/17 01:02:28;;;;;;;7.60;4.47;;;14.80;62.00;;;;;;10451620;28;20037;-56
2023/03/17 01:07:29;;;;;;;6.28;4.03;;;14.80;62.10;;;;;;10451286;28;20036;-56
2023/03/17 01:12:29;;;;;;;8.57;4.20;;;14.80;62.00;;;;;;10437532;28;20362;-56
2023/03/17 01:17:31;;;;;;;7.93;4.10;;;14.80;62.00;;;;;;10450690;28;20044;-56
2023/03/17 01:22:31;;;;;;;8.50;4.10;;;14.80;62.00;;;;;;10451601;28;20068;-56
2023/03/17 01:27:36;;;;;;;4.82;3.25;;;14.80;62.00;;;;;;10451500;28;20023;-56
2023/03/17 01:32:36;;;;;;;6.53;3.83;;;14.80;62.00;;;;;;10450569;28;20020;-56
2023/03/17 01:37:38;;;;;;;5.63;3.58;;;14.80;62.00;;;;;;10448831;28;20163;-56
2023/03/17 01:42:40;;;;;;;6.97;3.97;;;14.80;62.00;;;;;;10449698;28;20460;-56
2023/03/17 01:47:41;;;;;;;7.00;4.00;;;14.80;62.00;;;;;;10451082;28;20021;-56
2023/03/17 01:52:42;;;;;;;7.07;4.25;;;14.80;62.00;;;;;;10449397;28;20668;-56
2023/03/17 01:57:50;;;;;;;6.15;3.72;;;14.80;62.00;;;;;;10450316;28;20070;-56
2023/03/17 02:02:54;;;;;;;6.30;3.80;;;14.80;62.00;;;;;;10448955;28;20496;-56
2023/03/17 02:07:55;;;;;;;5.43;3.20;;;14.70;61.90;;;;;;10431215;28;20062;-56
2023/03/17 02:13:01;;;;;;;5.82;3.25;;;14.70;61.90;;;;;;10448490;28;20029;-56
2023/03/17 02:18:02;;;;;;;7.07;3.65;;;14.70;61.90;;;;;;10447994;28;20025;-55
2023/03/17 02:23:05;;;;;;;6.88;3.72;;;14.70;62.00;;;;;;10448706;28;20056;-56
2023/03/17 02:28:13;;;;;;;5.68;2.97;;;14.70;61.90;;;;;;10447643;28;20728;-56
2023/03/17 02:33:13;;;;;;;5.65;3.67;;;14.70;62.00;;;;;;10448046;28;20104;-56
2023/03/17 02:38:14;;;;;;;4.03;2.83;;;14.70;62.00;;;;;;10446788;28;20021;-56
2023/03/17 02:43:15;;;;;;;4.63;3.42;;;14.70;62.00;;;;;;10447144;28;20120;-56
2023/03/17 02:48:16;;;;;;;6.45;3.53;;;14.70;61.90;;;;;;10446391;28;20113;-56
2023/03/17 02:53:17;;;;;;;5.32;2.92;;;14.70;61.90;;;;;;10446605;28;20044;-56
2023/03/17 02:58:18;;;;;;;6.85;2.95;;;14.70;61.90;;;;;;10446763;28;20024;-56
2023/03/17 03:03:18;;;;;;;4.22;2.92;;;14.70;61.90;;;;;;10448017;28;20031;-56
2023/03/17 03:08:20;;;;;;;4.32;2.40;;;14.60;61.90;;;;;;10446310;28;20041;-56
2023/03/17 03:13:22;;;;;;;3.38;2.10;;;14.60;61.90;;;;;;10447416;28;20567;-56
2023/03/17 03:18:23;;;;;;;4.53;2.72;;;14.60;61.90;;;;;;10446014;28;20032;-56
2023/03/17 03:23:23;;;;;;;4.80;2.70;;;14.60;61.90;;;;;;10445786;28;20362;-56
2023/03/17 03:28:24;;;;;;;5.22;3.15;;;14.60;61.90;;;;;;10447096;28;20017;-56
2023/03/17 03:33:25;;;;;;;2.88;1.98;;;14.60;62.60;;;;;;10445300;28;20025;-55
2023/03/17 03:38:26;;;;;;;3.65;1.88;;;14.60;61.90;;;;;;10445957;28;20084;-56
2023/03/17 03:43:27;;;;;;;6.20;2.67;;;14.60;61.70;;;;;;10445454;28;20029;-56
2023/03/17 03:48:28;;;;;;;5.15;2.42;;;14.80;61.20;;;;;;10446321;28;20364;-56
2023/03/17 03:53:29;;;;;;;4.70;2.55;;;15.10;60.40;;;;;;10446320;28;20032;-56
2023/03/17 03:58:29;;;;;;;7.55;2.38;;;15.40;59.40;;;;;;10445128;28;20452;-56
2023/03/17 04:03:30;;;;;;;4.85;2.33;;;15.60;58.60;;;;;;10445848;28;20037;-55
2023/03/17 04:08:32;;;;;;;4.22;2.22;;;15.90;58.10;;;;;;10445983;28;20037;-56
2023/03/17 04:13:32;;;;;;;4.57;2.28;;;16.00;57.50;;;;;;10444268;28;20071;-55
2023/03/17 04:18:34;;;;;;;5.75;2.65;;;16.20;57.10;;;;;;10442166;28;20112;-56
2023/03/17 04:23:35;;;;;;;3.65;1.77;;;16.40;56.60;;;;;;10444717;28;20029;-56
2023/03/17 04:28:35;;;;;;;4.18;1.95;;;16.50;56.30;;;;;;10445056;28;20025;-57
2023/03/17 04:33:37;;;;;;;3.60;2.28;;;16.60;56.10;;;;;;10445543;28;20025;-57
2023/03/17 04:38:37;;;;;;;3.88;2.20;;;16.70;56.00;;;;;;10445588;28;20024;-56
2023/03/17 04:43:38;;;;;;;3.13;1.63;;;16.70;55.80;;;;;;10443643;28;20453;-56
2023/03/17 04:48:40;;;;;;;2.85;2.10;;;16.80;55.90;;;;;;10444033;28;20067;-57
2023/03/17 04:53:40;;;;;;;3.20;1.70;;;16.80;55.70;;;;;;10443369;28;20041;-56
2023/03/17 04:58:41;;;;;;;3.75;1.80;;;16.80;55.80;;;;;;10444649;28;20057;-57
2023/03/17 05:03:42;;;;;;;2.40;1.67;;;16.80;56.00;;;;;;10445272;28;20064;-56
2023/03/17 05:08:46;;;;;;;3.55;1.92;;;16.70;56.20;;;;;;10443355;28;20088;-56
2023/03/17 05:13:47;;;;;;;3.35;1.70;;;16.60;56.60;;;;;;10450939;28;20127;-56
2023/03/17 05:18:48;;;;;;;3.08;1.58;;;16.50;56.70;;;;;;10446837;28;20025;-56
2023/03/17 05:23:49;;;;;;;3.58;1.60;;;16.50;56.90;;;;;;10450863;28;20025;-56
2023/03/17 05:28:49;;;;;;;3.35;1.73;;;16.50;57.00;;;;;;10451840;28;20412;-56
2023/03/17 05:33:50;;;;;;;3.42;1.48;;;16.50;57.10;;;;;;10451467;28;20029;-56
2023/03/17 05:38:51;;;;;;;2.60;1.30;;;16.40;57.20;;;;;;10451757;28;20067;-57
2023/03/17 05:43:51;;;;;;;3.45;1.77;;;16.40;57.30;;;;;;10436789;28;20064;-56
2023/03/17 05:48:52;;;;;;;2.13;1.30;;;16.40;57.50;;;;;;10448356;28;20021;-56
2023/03/17 05:53:53;;;;;;;2.05;1.23;;;16.30;57.60;;;;;;10427797;28;20133;-55
2023/03/17 05:58:53;;;;;;;4.95;1.80;;;16.30;58.30;;;;;;10449296;28;20060;-57
2023/03/17 06:03:54;;;;;;;4.88;2.83;;;16.30;58.10;;;;;;10450904;28;20116;-61
2023/03/17 06:08:55;;;;;;;4.55;2.38;;;16.50;59.30;;;;;;10450477;28;20526;-54
2023/03/17 06:13:56;;;;;;;5.35;2.45;;;16.70;58.90;;;;;;10448897;28;20057;-57
2023/03/17 06:18:56;;;;;;;5.80;2.40;;;16.60;59.30;;;;;;10448568;28;20448;-56
2023/03/17 06:23:57;;;;;;;6.78;2.20;;;16.60;59.70;;;;;;10435679;28;20219;-56
2023/03/17 06:28:58;;;;;;;96.78;81.60;;;16.50;61.40;;;;;;10448502;28;20025;-56
2023/03/17 06:33:59;;;;;;;63.40;49.35;;;16.50;60.60;;;;;;10449505;28;20092;-55
2023/03/17 06:38:59;;;;;;;47.83;36.75;;;16.30;60.80;;;;;;10449439;28;20021;-54
2023/03/17 06:44:00;;;;;;;33.25;24.38;;;16.20;60.60;;;;;;10448614;28;20029;-55
2023/03/17 06:49:02;;;;;;;27.92;19.83;;;16.30;60.30;;;;;;10436872;28;20071;-56
2023/03/17 06:54:02;;;;;;;24.38;15.52;;;16.10;59.30;;;;;;10452190;28;20051;-58
2023/03/17 06:59:03;;;;;;;23.52;12.60;;;16.10;59.50;;;;;;10439097;28;20028;-53
2023/03/17 07:04:05;;;;;;;34.88;12.95;;;16.10;58.80;;;;;;10448158;28;20111;-56
2023/03/17 07:09:06;;;;;;;37.63;12.65;;;16.20;59.10;;;;;;10429546;28;20068;-57
2023/03/17 07:14:07;;;;;;;37.53;11.73;;;16.40;59.40;;;;;;10444938;28;20121;-58
2023/03/17 07:19:08;;;;;;;49.90;13.68;;;16.30;59.50;;;;;;10435008;28;20060;-58
2023/03/17 07:24:10;;;;;;;35.65;10.15;;;16.30;60.70;;;;;;10430405;28;20191;-53
2023/03/17 07:29:10;;;;;;;23.00;9.77;;;16.30;60.80;;;;;;10441050;28;20022;-54
2023/03/17 07:34:11;;;;;;;25.20;9.20;;;16.30;61.40;;;;;;10440908;28;20104;-56
2023/03/17 07:39:12;;;;;;;35.03;10.23;;;16.30;61.50;;;;;;10437759;28;20379;-56
2023/03/17 07:44:12;;;;;;;21.38;9.90;;;16.30;62.10;;;;;;10442403;28;20043;-56
2023/03/17 07:49:14;;;;;;;26.55;10.43;;;16.40;62.00;;;;;;10443868;28;20091;-57
2023/03/17 07:54:14;;;;;;;23.65;8.63;;;16.70;61.60;;;;;;10423182;28;20094;-57
2023/03/17 07:59:15;;;;;;;18.90;8.30;;;16.90;60.80;;;;;;10427336;28;20032;-55
2023/03/17 08:04:16;;;;;;;31.13;8.57;;;17.30;59.60;;;;;;10444011;28;20064;-57
2023/03/17 08:09:16;;;;;;;17.42;7.18;;;17.40;59.00;;;;;;10442595;28;20045;-57
2023/03/17 08:14:17;;;;;;;23.65;8.07;;;17.50;58.80;;;;;;10439182;28;20108;-57
2023/03/17 08:19:17;;;;;;;19.17;8.65;;;17.60;58.60;;;;;;10442567;28;20024;-56
2023/03/17 08:24:18;;;;;;;25.65;7.30;;;17.80;58.90;;;;;;10440423;28;20119;-55
2023/03/17 08:29:19;;;;;;;15.05;6.15;;;18.00;58.30;;;;;;10442188;28;20392;-55
2023/03/17 08:34:20;;;;;;;19.15;6.22;;;18.00;58.20;;;;;;10441904;28;20029;-58
2023/03/17 08:39:21;;;;;;;12.63;4.70;;;18.10;58.00;;;;;;10436356;28;20461;-57
2023/03/17 08:44:22;;;;;;;15.68;6.03;;;18.10;58.20;;;;;;10443065;28;20040;-58
2023/03/17 08:49:22;;;;;;;16.52;5.72;;;18.20;58.20;;;;;;10444091;28;20024;-55
2023/03/17 08:54:23;;;;;;;17.33;5.43;;;18.10;58.20;;;;;;10451074;28;20047;-56
2023/03/17 08:59:24;;;;;;;19.10;4.80;;;18.20;57.80;;;;;;10449309;28;20049;-57
2023/03/17 09:04:25;;;;;;;19.92;5.32;;;18.20;58.10;;;;;;10439538;28;20053;-57
2023/03/17 09:09:27;;;;;;;15.63;5.13;;;18.30;57.60;;;;;;10438341;28;20469;-57
2023/03/17 09:14:28;;;;;;;17.73;4.80;;;18.40;57.60;;;;;;10459514;28;20091;-56
2023/03/17 09:19:28;;;;;;;17.20;5.15;;;18.50;57.40;;;;;;10448798;28;20075;-56
2023/03/17 09:24:30;;;;;;;9.85;4.47;;;18.40;58.90;;;;;;10449678;28;20057;-55
2023/03/17 09:29:32;;;;;;;10.95;3.92;;;18.50;60.40;;;;;;10440928;28;20571;-55
2023/03/17 09:34:34;;;;;;;19.60;4.68;;;18.50;60.80;;;;;;10440638;28;20021;-55
2023/03/17 09:39:35;;;;;;;11.70;3.13;;;18.60;60.80;;;;;;10447831;28;20479;-56
2023/03/17 09:45:08;;;;;;;8.07;3.28;;;18.60;60.90;;;;;;10444127;28;20089;-56
2023/03/17 09:50:18;;;;;;;12.13;3.40;;;18.40;62.00;;;;;;10444578;28;20021;-55
2023/03/17 09:55:29;;;;;;;12.82;3.35;;;18.40;61.70;;;;;;10441053;28;20025;-55
2023/03/17 10:00:31;;;;;;;11.07;3.95;;;18.20;61.40;;;;;;10443396;28;20028;-54
2023/03/17 10:05:34;;;;;;;10.23;3.25;;;18.10;61.70;;;;;;10444277;28;20032;-55
2023/03/17 10:10:49;;;;;;;13.32;3.90;;;18.10;62.10;;;;;;10446504;28;20072;-57
2023/03/17 10:15:58;;;;;;;9.63;3.08;;;18.00;61.30;;;;;;10441718;28;20028;-56
2023/03/17 10:21:03;;;;;;;11.20;3.43;;;17.90;61.50;;;;;;10437000;28;20040;-56
2023/03/17 10:26:15;;;;;;;9.77;2.83;;;17.80;61.50;;;;;;10430118;28;20016;-55
2023/03/17 10:31:20;;;;;;;7.20;2.60;;;17.70;62.00;;;;;;10445939;28;20025;-56
2023/03/17 10:36:37;;;;;;;7.15;2.72;;;17.60;62.30;;;;;;10446166;28;20436;-55
2023/03/17 10:41:51;;;;;;;5.82;2.35;;;17.50;62.60;;;;;;10445367;28;20028;-56
2023/03/17 10:46:55;;;;;;;5.47;2.38;;;17.40;62.60;;;;;;10445906;28;20036;-56
2023/03/17 10:51:56;;;;;;;4.95;2.40;;;17.30;62.80;;;;;;10445471;28;20028;-56
2023/03/17 10:57:05;;;;;;;7.25;2.83;;;17.20;63.10;;;;;;10445937;28;20100;-56
2023/03/17 11:02:41;;;;;;;5.05;2.30;;;17.10;63.20;;;;;;10444687;28;20028;-56
2023/03/17 11:07:42;;;;;;;5.80;2.63;;;17.10;63.30;;;;;;10443548;28;20037;-56
2023/03/17 11:12:45;;;;;;;7.60;2.28;;;17.00;63.20;;;;;;10444485;28;20492;-56
2023/03/17 11:17:57;;;;;;;4.65;1.92;;;17.00;63.30;;;;;;10440291;28;20064;-52
2023/03/17 11:23:05;;;;;;;9.45;3.45;;;16.90;63.40;;;;;;10435074;28;20043;-54
2023/03/17 11:28:26;;;;;;;13.05;4.00;;;16.90;63.60;;;;;;10445172;28;20017;-56
2023/03/17 11:33:52;;;;;;;7.03;2.67;;;17.00;64.20;;;;;;10439841;28;20021;-55
2023/03/17 11:39:04;;;;;;;7.15;2.00;;;17.10;64.10;;;;;;10443329;28;20043;-54
2023/03/17 11:44:08;;;;;;;7.07;3.85;;;17.20;63.10;;;;;;10433791;28;20127;-56
2023/03/17 11:49:27;;;;;;;11.52;2.70;;;17.00;63.60;;;;;;10443355;28;20141;-55
2023/03/17 11:54:55;;;;;;;12.57;2.50;;;17.00;64.20;;;;;;10440663;28;20356;-55
2023/03/17 12:00:34;;;;;;;17.55;3.20;;;17.00;64.40;;;;;;10441661;28;20287;-56
2023/03/17 12:05:36;;;;;;;19.42;3.10;;;16.90;65.00;;;;;;10443105;28;20037;-56
2023/03/17 12:10:51;;;;;;;13.27;3.58;;;17.00;65.40;;;;;;10432435;28;20111;-57
2023/03/17 12:16:46;;;;;;;10.70;3.15;;;16.90;65.70;;;;;;10439268;28;20020;-57
2023/03/17 12:21:59;;;;;;;13.15;3.33;;;16.90;65.90;;;;;;10442595;28;20063;-57
2023/03/17 12:27:12;;;;;;;9.80;2.45;;;16.90;65.90;;;;;;10448625;28;20017;-57
2023/03/17 12:32:34;;;;;;;10.07;2.83;;;16.90;66.00;;;;;;10450604;28;20025;-56
2023/03/17 12:37:35;;;;;;;10.52;2.60;;;16.90;66.10;;;;;;10450497;28;20017;-56
2023/03/17 12:42:52;;;;;;;9.75;2.45;;;16.90;65.70;;;;;;10438952;28;20432;-57
2023/03/17 12:48:32;;;;;;;9.23;2.78;;;17.00;65.80;;;;;;10450200;28;20113;-56
2023/03/17 12:53:45;;;;;;;12.73;3.25;;;17.00;65.50;;;;;;10449759;28;20029;-56
2023/03/17 12:58:50;;;;;;;26.30;5.45;;;16.90;65.60;;;;;;10448059;28;20476;-56
2023/03/17 13:04:00;;;;;;;17.80;3.80;;;16.90;66.00;;;;;;10444783;28;20587;-56
2023/03/17 13:09:55;;;;;;;21.73;3.58;;;16.80;65.60;;;;;;10444473;28;20048;-57
2023/03/17 13:14:57;;;;;;;13.40;4.18;;;16.80;65.40;;;;;;10437198;28;20025;-55
2023/03/17 13:20:06;;;;;;;9.98;2.90;;;16.80;65.00;;;;;;10438916;28;20053;-58
2023/03/17 13:25:34;;;;;;;30.17;4.65;;;16.90;64.80;;;;;;10438837;28;20040;-55
2023/03/17 13:30:35;;;;;;;23.10;4.13;;;16.90;65.30;;;;;;10427120;28;20021;-57
2023/03/17 13:35:40;;;;;;;18.35;3.85;;;16.90;65.90;;;;;;10440262;28;20401;-57
2023/03/17 13:41:12;;;;;;;15.75;4.03;;;16.90;65.90;;;;;;10437877;28;21082;-57
2023/03/17 13:46:18;;;;;;;17.40;4.53;;;16.80;65.70;;;;;;10446395;28;20025;-56
2023/03/17 13:51:24;;;;;;;26.08;5.13;;;16.90;65.60;;;;;;10454307;28;20017;-57
2023/03/17 13:56:40;;;;;;;19.15;3.97;;;16.90;65.80;;;;;;10452514;28;20025;-56
2023/03/17 14:02:00;;;;;;;21.30;4.70;;;16.80;65.70;;;;;;10438674;28;20125;-57
2023/03/17 14:07:11;;;;;;;9.90;3.85;;;16.70;65.80;;;;;;10440860;28;20013;-57
2023/03/17 14:12:41;;;;;;;20.77;4.45;;;16.80;65.80;;;;;;10444830;28;20033;-57
2023/03/17 14:17:47;;;;;;;13.93;3.97;;;16.80;65.30;;;;;;10450738;28;20408;-55
2023/03/17 14:22:55;;;;;;;20.30;4.18;;;16.80;65.50;;;;;;10430617;28;20094;-56
2023/03/17 14:27:57;;;;;;;20.88;4.28;;;16.70;65.50;;;;;;10417907;28;20014;-56
2023/03/17 14:33:12;;;;;;;16.23;3.42;;;16.70;65.40;;;;;;10423408;28;20033;-55
2023/03/17 14:38:31;;;;;;;7.95;3.50;;;16.70;65.30;;;;;;10443577;28;20376;-56
2023/03/17 14:43:34;;;;;;;13.10;4.15;;;16.70;65.20;;;;;;10439054;28;20033;-56
2023/03/17 14:48:39;;;;;;;12.02;4.22;;;16.70;65.10;;;;;;10433502;28;20022;-55
2023/03/17 14:53:43;;;;;;;11.05;4.57;;;16.70;65.10;;;;;;10448817;28;20477;-57
2023/03/17 14:58:47;;;;;;;12.10;3.90;;;16.60;65.00;;;;;;10442048;28;20017;-56
2023/03/17 15:04:14;;;;;;;11.57;3.08;;;16.60;65.00;;;;;;10443760;28;20039;-57
2023/03/17 15:09:30;;;;;;;10.35;3.35;;;16.60;65.10;;;;;;10440731;28;20045;-55
2023/03/17 15:14:34;;;;;;;11.30;3.20;;;16.60;65.00;;;;;;10436859;28;20021;-57
2023/03/17 15:19:42;;;;;;;11.40;2.80;;;16.60;64.90;;;;;;10440077;28;20021;-57
2023/03/17 15:24:43;;;;;;;7.63;3.08;;;16.60;64.80;;;;;;10425281;28;20029;-55
2023/03/17 15:29:46;;;;;;;10.32;3.67;;;16.60;64.70;;;;;;10443015;28;20441;-57
2023/03/17 15:34:53;;;;;;;10.45;3.90;;;16.60;64.70;;;;;;10431180;28;20480;-56
2023/03/17 15:39:55;;;;;;;14.68;4.00;;;16.60;64.80;;;;;;10438767;28;20043;-56
2023/03/17 15:44:58;;;;;;;13.93;4.10;;;16.60;64.70;;;;;;10442534;28;20032;-55
2023/03/17 15:50:22;;;;;;;11.55;4.03;;;16.60;64.70;;;;;;10441032;28;20021;-57
2023/03/17 15:55:29;;;;;;;14.70;4.85;;;16.60;64.60;;;;;;10441711;28;20116;-56
2023/03/17 16:00:30;;;;;;;17.30;4.20;;;16.60;64.70;;;;;;10458688;28;20054;-55
2023/03/17 16:05:33;;;;;;;10.73;3.13;;;16.60;64.70;;;;;;10451392;28;20048;-55
2023/03/17 16:10:34;;;;;;;12.18;3.53;;;16.60;64.60;;;;;;10415349;28;20037;-56
2023/03/17 16:15:39;;;;;;;15.82;4.68;;;16.60;64.60;;;;;;10436647;28;20112;-56
2023/03/17 16:20:43;;;;;;;10.60;3.45;;;16.60;64.40;;;;;;10429374;28;20021;-57
2023/03/17 16:25:45;;;;;;;11.93;3.75;;;16.60;64.40;;;;;;10441914;28;20084;-55
2023/03/17 16:30:47;;;;;;;28.08;5.28;;;16.70;64.50;;;;;;10412954;28;20017;-57
2023/03/17 16:35:51;;;;;;;29.45;4.85;;;16.70;65.00;;;;;;10430159;28;20097;-57
2023/03/17 16:40:57;;;;;;;15.90;3.78;;;16.70;65.40;;;;;;10440530;28;20707;-55
2023/03/17 16:46:01;;;;;;;15.52;3.72;;;16.70;66.00;;;;;;10436504;28;20078;-49
2023/03/17 16:51:04;;;;;;;15.50;5.70;;;16.70;65.30;;;;;;10394096;28;20033;-56
2023/03/17 16:56:13;;;;;;;16.67;7.72;;;16.70;67.80;;;;;;10427500;28;20025;-57
2023/03/17 17:01:21;;;;;;;17.20;4.03;;;16.90;70.60;;;;;;10427455;28;20029;-55
2023/03/17 17:06:23;;;;;;;15.38;4.82;;;16.90;66.80;;;;;;10426244;28;20036;-55
2023/03/17 17:11:23;;;;;;;25.35;6.05;;;17.20;69.10;;;;;;10442962;28;20582;-55
2023/03/17 17:16:33;;;;;;;16.35;5.43;;;17.20;70.20;;;;;;10416585;28;20033;-56
2023/03/17 17:21:33;;;;;;;22.00;5.30;;;17.50;71.10;;;;;;10442412;28;20491;-55
2023/03/17 17:26:34;;;;;;;18.15;4.45;;;17.60;69.20;;;;;;10451242;28;20101;-56
2023/03/17 17:31:35;;;;;;;15.32;4.35;;;17.50;69.00;;;;;;10452004;28;20076;-56
2023/03/17 17:36:35;;;;;;;23.98;5.55;;;17.50;69.40;;;;;;10451664;28;20024;-56
2023/03/17 17:41:36;;;;;;;20.67;4.53;;;17.40;69.60;;;;;;10432074;28;20025;-56
2023/03/17 17:46:37;;;;;;;31.02;5.60;;;17.20;69.20;;;;;;10450332;28;20154;-57
2023/03/17 17:51:37;;;;;;;21.63;4.72;;;17.00;69.70;;;;;;10451340;28;20063;-55
2023/03/17 17:56:39;;;;;;;19.40;4.88;;;17.00;69.60;;;;;;10449209;28;20462;-56
2023/03/17 18:01:40;;;;;;;18.77;4.57;;;17.00;69.50;;;;;;10450734;28;20033;-55
2023/03/17 18:06:40;;;;;;;21.02;5.50;;;16.90;69.20;;;;;;10450729;28;20096;-56
2023/03/17 18:11:41;;;;;;;11.27;3.92;;;16.90;69.40;;;;;;10450087;28;20041;-56
2023/03/17 18:16:42;;;;;;;9.43;3.28;;;16.80;69.30;;;;;;10449742;28;20112;-56
2023/03/17 18:21:43;;;;;;;14.57;3.90;;;16.80;69.00;;;;;;10439615;28;20509;-56
2023/03/17 18:26:44;;;;;;;10.80;4.32;;;16.80;68.90;;;;;;10450071;28;20013;-56
2023/03/17 18:31:51;;;;;;;12.27;4.18;;;16.80;68.90;;;;;;10449346;28;20032;-56
2023/03/17 18:36:56;;;;;;;13.40;4.45;;;16.70;68.80;;;;;;10449902;28;20491;-56
2023/03/17 18:41:57;;;;;;;10.52;4.07;;;16.70;68.60;;;;;;10447750;28;20445;-56
2023/03/17 18:46:57;;;;;;;7.53;3.15;;;16.60;68.40;;;;;;10464120;28;20020;-56
2023/03/17 18:51:58;;;;;;;10.35;3.70;;;16.60;68.70;;;;;;10446365;28;20024;-56
2023/03/17 18:56:59;;;;;;;16.30;5.93;;;16.70;68.30;;;;;;10447321;28;20075;-57
2023/03/17 19:02:01;;;;;;;12.20;3.45;;;16.80;68.50;;;;;;10448072;28;20037;-57
2023/03/17 19:07:02;;;;;;;7.63;3.00;;;16.70;68.40;;;;;;10447496;28;20485;-57
2023/03/17 19:12:03;;;;;;;8.98;3.17;;;16.70;68.30;;;;;;10419373;28;20144;-57
2023/03/17 19:17:05;;;;;;;11.23;2.97;;;16.70;68.20;;;;;;10443409;28;20107;-58
2023/03/17 19:22:06;;;;;;;7.80;3.17;;;16.70;68.00;;;;;;10455200;28;20571;-58
2023/03/17 19:27:07;;;;;;;10.18;3.20;;;16.60;68.10;;;;;;10441208;28;20014;-58
2023/03/17 19:32:08;;;;;;;5.60;2.92;;;16.60;68.00;;;;;;10437125;28;20024;-57
2023/03/17 19:37:08;;;;;;;4.85;2.75;;;16.60;68.10;;;;;;10442992;28;20024;-57
2023/03/17 19:42:11;;;;;;;6.65;2.55;;;16.50;68.10;;;;;;10444451;28;20031;-58
2023/03/17 19:47:12;;;;;;;7.25;2.47;;;16.50;68.10;;;;;;10444677;28;20670;-58
2023/03/17 19:52:12;;;;;;;7.50;2.72;;;16.50;68.10;;;;;;10458022;28;20021;-58
2023/03/17 19:57:15;;;;;;;7.38;2.28;;;16.50;68.00;;;;;;10428069;28;20084;-58
2023/03/17 20:02:16;;;;;;;8.27;2.22;;;16.40;67.80;;;;;;10442394;28;20036;-57
2023/03/17 20:07:17;;;;;;;4.30;2.22;;;16.40;67.80;;;;;;10436914;28;20021;-58
2023/03/17 20:12:17;;;;;;;4.25;2.30;;;16.40;67.90;;;;;;10434400;28;20025;-58
2023/03/17 20:17:18;;;;;;;5.13;2.67;;;16.40;68.40;;;;;;10440377;28;20021;-57
2023/03/17 20:22:19;;;;;;;4.00;2.30;;;16.40;67.80;;;;;;10445238;28;20055;-58
2023/03/17 20:27:20;;;;;;;4.93;2.20;;;16.40;67.80;;;;;;10438901;28;20025;-58
2023/03/17 20:32:21;;;;;;;3.72;2.42;;;16.30;67.70;;;;;;10441528;28;20025;-58
2023/03/17 20:37:23;;;;;;;5.32;2.20;;;16.30;67.60;;;;;;10443395;28;20100;-57
2023/03/17 20:42:24;;;;;;;4.70;2.20;;;16.30;67.40;;;;;;10447563;28;20021;-57
2023/03/17 20:47:25;;;;;;;4.05;2.08;;;16.30;67.30;;;;;;10449182;28;20067;-58
2023/03/17 20:52:26;;;;;;;4.13;1.80;;;16.30;67.50;;;;;;10452847;28;20032;-58
2023/03/17 20:57:27;;;;;;;5.30;2.03;;;16.30;67.40;;;;;;10450046;28;20029;-58
2023/03/17 21:02:29;;;;;;;3.75;2.05;;;16.20;68.00;;;;;;10447992;28;20025;-58
2023/03/17 21:07:30;;;;;;;3.80;1.70;;;16.20;67.40;;;;;;10448503;28;20132;-57
2023/03/17 21:12:31;;;;;;;3.80;1.70;;;16.20;67.40;;;;;;10446790;28;20483;-57
2023/03/17 21:17:31;;;;;;;5.03;2.10;;;16.20;67.40;;;;;;10444077;28;20023;-57
2023/03/17 21:22:35;;;;;;;4.35;1.92;;;16.20;67.30;;;;;;10443790;28;20033;-57
2023/03/17 21:27:37;;;;;;;3.88;1.42;;;16.20;67.40;;;;;;10444944;28;20079;-58
2023/03/17 21:32:40;;;;;;;3.38;1.80;;;16.20;68.00;;;;;;10447213;28;20495;-56
2023/03/17 21:37:41;;;;;;;2.90;2.05;;;16.10;67.30;;;;;;10430499;28;20098;-56
2023/03/17 21:42:42;;;;;;;3.20;1.88;;;16.10;67.20;;;;;;10434909;28;20029;-58
2023/03/17 21:47:43;;;;;;;3.00;1.63;;;16.10;67.30;;;;;;10446516;28;20024;-58
2023/03/17 21:52:44;;;;;;;4.95;1.58;;;16.10;67.20;;;;;;10428970;28;20358;-58
2023/03/17 21:57:45;;;;;;;3.30;1.90;;;16.10;67.30;;;;;;10446032;28;20040;-57
2023/03/17 22:02:46;;;;;;;2.58;1.80;;;16.10;67.30;;;;;;10445722;28;20417;-57
2023/03/17 22:07:47;;;;;;;4.13;1.17;;;16.10;67.30;;;;;;10445900;28;20060;-57
2023/03/17 22:12:47;;;;;;;3.60;1.88;;;16.10;67.20;;;;;;10446867;28;20060;-56
2023/03/17 22:17:48;;;;;;;2.50;1.50;;;16.10;67.20;;;;;;10446718;28;20111;-58
2023/03/17 22:22:49;;;;;;;3.10;2.10;;;16.10;67.20;;;;;;10445286;28;20126;-57
2023/03/17 22:27:49;;;;;;;3.65;2.13;;;16.10;67.10;;;;;;10445026;28;20583;-57
2023/03/17 22:32:50;;;;;;;5.75;2.00;;;16.00;67.10;;;;;;10444741;28;20033;-58
2023/03/17 22:37:51;;;;;;;2.53;1.52;;;16.00;67.00;;;;;;10445994;28;20455;-58
2023/03/17 22:42:55;;;;;;;2.42;1.40;;;16.00;67.00;;;;;;10430464;28;20396;-58
2023/03/17 22:47:56;;;;;;;3.15;1.70;;;16.00;67.00;;;;;;10444590;28;20052;-57
2023/03/17 22:52:57;;;;;;;2.55;1.30;;;16.00;67.00;;;;;;10445126;28;20096;-57
2023/03/17 22:57:57;;;;;;;3.75;1.73;;;16.00;67.00;;;;;;10445075;28;20502;-57
2023/03/17 23:02:58;;;;;;;5.75;1.90;;;16.00;66.90;;;;;;10442784;28;20079;-57
2023/03/17 23:07:59;;;;;;;2.80;1.40;;;16.00;66.90;;;;;;10443209;28;20120;-57
2023/03/17 23:12:59;;;;;;;1.83;1.38;;;16.00;66.90;;;;;;10444788;28;20035;-58
2023/03/17 23:18:00;;;;;;;2.95;1.77;;;16.00;66.90;;;;;;10443250;28;20032;-58
2023/03/17 23:23:01;;;;;;;2.45;1.63;;;16.00;66.80;;;;;;10443047;28;20029;-56
2023/03/17 23:28:02;;;;;;;2.95;1.55;;;16.00;66.70;;;;;;10443042;28;20027;-57
2023/03/17 23:33:04;;;;;;;3.90;1.65;;;16.00;66.70;;;;;;10443526;28;20385;-58
2023/03/17 23:38:05;;;;;;;3.38;2.00;;;16.00;66.70;;;;;;10443605;28;20388;-59
2023/03/17 23:43:06;;;;;;;7.70;1.75;;;16.00;66.80;;;;;;10412433;28;20025;-58
2023/03/17 23:48:09;;;;;;;2.53;1.42;;;15.90;66.60;;;;;;10425263;28;20104;-57
2023/03/17 23:53:10;;;;;;;3.70;2.20;;;16.00;66.70;;;;;;10442296;28;20021;-57
2023/03/17 23:58:12;;;;;;;5.38;1.70;;;16.00;66.70;;;;;;10441848;28;20068;-58
